Time;durP1;ratioP1;P1;durP2;ratioP2;P2;SDS_P1;SDS_P2;PMS_P1;PMS_P2;Temp;Humidity;BMP_temperature;BMP_pressure;BME280_temperature;BME280_humidity;BME280_pressure;Samples;Min_cycle;Max_cycle;Signal;HPM_P1;HPM_P2
2022/04/30 00:00:58;;;;;;;17.70;11.77;;;;;;;15.37;56.08;99705.66;4146608;28;20279;-39
2022/04/30 00:03:00;;;;;;;15.33;12.33;;;;;;;14.99;57.64;99744.19;4142031;28;20237;-38
2022/04/30 00:05:02;;;;;;;16.50;12.00;;;;;;;14.63;58.32;99750.31;4145434;28;20233;-36
2022/04/30 00:07:05;;;;;;;19.90;13.40;;;;;;;15.03;57.39;99710.66;4140625;28;20848;-39
2022/04/30 00:09:06;;;;;;;15.20;11.90;;;;;;;14.85;58.32;99715.63;4145192;28;20295;-41
2022/04/30 00:11:08;;;;;;;14.20;11.87;;;;;;;15.36;57.04;99670.00;4144145;28;20241;-39
2022/04/30 00:13:10;;;;;;;20.90;12.93;;;;;;;15.45;56.97;99671.50;4144952;28;20309;-44
2022/04/30 00:15:12;;;;;;;17.30;13.10;;;;;;;15.28;57.27;99686.19;4148739;28;20229;-34
2022/04/30 00:17:14;;;;;;;16.80;12.77;;;;;;;15.66;56.53;99659.16;4143460;28;20241;-39
2022/04/30 00:19:16;;;;;;;16.17;12.17;;;;;;;16.09;55.56;99612.59;4149114;28;20749;-38
2022/04/30 00:21:17;;;;;;;13.40;12.00;;;;;;;15.78;56.24;99654.91;4146332;28;20229;-40
2022/04/30 00:23:19;;;;;;;16.17;12.10;;;;;;;15.83;55.39;99653.47;4143785;28;20300;-38
2022/04/30 00:25:21;;;;;;;14.33;11.40;;;;;;;16.02;54.91;99625.16;4145868;28;20308;-36
2022/04/30 00:27:23;;;;;;;13.67;11.37;;;;;;;15.69;55.88;99693.59;4143219;28;20287;-37
2022/04/30 00:29:27;;;;;;;15.07;11.40;;;;;;;15.54;55.99;99690.97;4147105;28;20237;-39
2022/04/30 00:31:28;;;;;;;16.57;12.07;;;;;;;15.54;56.17;99676.72;4145037;28;20249;-38
2022/04/30 00:33:30;;;;;;;16.43;11.83;;;;;;;15.41;56.55;99686.31;4143865;28;20245;-41
2022/04/30 00:35:32;;;;;;;15.00;12.03;;;;;;;15.74;55.91;99661.69;4144456;28;20241;-34
2022/04/30 00:37:33;;;;;;;13.53;10.93;;;;;;;15.33;57.09;99696.34;4143167;28;20299;-39
2022/04/30 00:39:35;;;;;;;20.33;12.10;;;;;;;16.11;55.08;99632.81;4147221;28;20715;-43
2022/04/30 00:41:47;;;;;;;13.33;11.23;;;;;;;16.71;53.87;99584.78;4147169;28;20232;-41
2022/04/30 00:43:51;;;;;;;15.00;11.67;;;;;;;16.85;53.25;99566.00;4142475;28;20245;-40
2022/04/30 00:45:53;;;;;;;14.73;11.23;;;;;;;16.93;53.41;99558.56;4144545;28;20236;-36
2022/04/30 00:47:55;;;;;;;15.50;11.10;;;;;;;16.92;53.42;99570.34;4144053;28;20230;-39
2022/04/30 00:49:56;;;;;;;14.20;10.77;;;;;;;16.01;55.20;99659.16;4145096;28;20303;-41
2022/04/30 00:52:01;;;;;;;15.53;11.20;;;;;;;15.37;56.89;99695.78;4144507;28;20237;-37
2022/04/30 00:54:05;;;;;;;14.70;10.47;;;;;;;15.22;58.39;99729.81;4147223;28;20241;-39
2022/04/30 00:56:10;;;;;;;14.73;10.97;;;;;;;14.52;59.81;99732.88;4144435;28;20295;-44
2022/04/30 00:58:14;;;;;;;14.20;10.90;;;;;;;14.51;60.25;99746.41;4144851;28;20280;-39
2022/04/30 01:00:16;;;;;;;14.07;11.07;;;;;;;15.12;58.79;99695.31;4147820;28;20233;-40
2022/04/30 01:02:18;;;;;;;14.67;11.33;;;;;;;15.25;58.28;99670.50;4148123;28;20240;-40
2022/04/30 01:04:20;;;;;;;15.20;11.23;;;;;;;14.37;61.26;99756.13;4144506;28;20320;-37
2022/04/30 01:06:51;;;;;;;16.20;11.63;;;;;;;16.18;56.91;99598.81;4141939;28;20281;-39
2022/04/30 01:08:53;;;;;;;17.93;13.20;;;;;;;16.22;56.12;99593.88;4148892;28;20237;-36
2022/04/30 01:10:56;;;;;;;17.67;12.33;;;;;;;14.72;60.84;99737.66;4147901;28;20665;-39
2022/04/30 01:12:58;;;;;;;17.10;12.43;;;;;;;14.26;62.33;99765.44;4143746;28;20229;-37
2022/04/30 01:14:59;;;;;;;17.90;12.80;;;;;;;14.95;59.96;99699.22;4144235;28;20284;-39
2022/04/30 01:17:05;;;;;;;15.67;12.43;;;;;;;13.97;63.12;99763.53;4145967;28;20234;-39
2022/04/30 01:19:09;;;;;;;15.47;12.03;;;;;;;14.66;61.27;99711.63;4147391;28;20247;-40
2022/04/30 01:21:14;;;;;;;18.83;12.57;;;;;;;13.75;63.94;99762.50;4142783;28;20224;-41
2022/04/30 01:23:17;;;;;;;17.67;11.97;;;;;;;14.20;62.95;99759.97;4144227;28;20583;-42
2022/04/30 01:25:20;;;;;;;16.93;12.40;;;;;;;14.06;63.09;99750.94;4145809;28;20283;-39
2022/04/30 01:27:26;;;;;;;14.40;11.77;;;;;;;14.37;62.11;99716.00;4142421;28;20241;-37
2022/04/30 01:29:37;;;;;;;16.57;11.93;;;;;;;14.08;63.15;99735.53;4143644;28;20240;-40
2022/04/30 01:38:59;;;;;;;18.57;12.77;;;;;;;14.74;61.43;99684.78;4139371;28;20233;-37
2022/04/30 01:41:01;;;;;;;15.80;11.93;;;;;;;15.00;60.90;99643.28;4143644;28;20332;-39
2022/04/30 01:43:05;;;;;;;19.47;12.97;;;;;;;14.80;61.39;99675.19;4142522;28;20233;-40
2022/04/30 01:45:08;;;;;;;16.07;12.73;;;;;;;14.05;63.28;99757.28;4147337;28;20316;-37
2022/04/30 01:47:11;;;;;;;15.93;11.87;;;;;;;15.38;58.90;99598.28;4143890;28;20225;-44
2022/04/30 01:49:16;;;;;;;18.57;13.07;;;;;;;14.24;62.62;99730.03;4144380;28;20236;-39
2022/04/30 01:51:17;;;;;;;16.90;12.17;;;;;;;14.76;61.46;99669.38;4143980;28;20259;-40
2022/04/30 01:53:19;;;;;;;17.53;12.67;;;;;;;15.25;60.24;99630.31;4143020;28;20237;-37
2022/04/30 01:55:21;;;;;;;22.37;14.03;;;;;;;15.38;59.69;99629.63;4144661;28;20241;-36
2022/04/30 01:57:25;;;;;;;18.93;13.53;;;;;;;14.69;61.28;99701.38;4143220;28;20233;-39
2022/04/30 01:59:28;;;;;;;20.23;13.30;;;;;;;15.20;59.66;99648.81;4149704;28;20308;-39
2022/04/30 02:01:30;;;;;;;19.83;13.03;;;;;;;14.42;62.44;99718.13;4144446;28;20936;-37
2022/04/30 02:03:33;;;;;;;15.90;12.83;;;;;;;14.64;61.76;99698.44;4145174;28;20319;-38
2022/04/30 02:05:39;;;;;;;17.03;13.50;;;;;;;14.04;63.92;99758.28;4137693;28;20237;-38
2022/04/30 02:07:55;;;;;;;19.13;12.83;;;;;;;14.78;61.32;99653.97;4138109;28;20237;-38
2022/04/30 02:10:00;;;;;;;19.50;13.50;;;;;;;15.45;59.47;99588.44;4145377;28;20241;-40
2022/04/30 02:12:02;;;;;;;21.10;14.50;;;;;;;15.99;58.13;99544.03;4144916;28;20804;-41
2022/04/30 02:14:07;;;;;;;20.17;15.20;;;;;;;15.48;59.39;99603.31;4142802;28;20717;-37
2022/04/30 02:16:09;;;;;;;17.63;14.10;;;;;;;16.30;57.01;99521.28;4143203;28;20241;-35
2022/04/30 02:18:15;;;;;;;18.03;14.20;;;;;;;15.83;58.74;99597.19;4144966;28;20240;-35
2022/04/30 02:20:18;;;;;;;17.33;13.60;;;;;;;15.77;59.22;99596.94;4142955;28;20233;-37
2022/04/30 02:22:21;;;;;;;19.90;14.63;;;;;;;15.60;59.46;99612.47;4141970;28;20324;-43
2022/04/30 02:24:27;;;;;;;19.23;15.10;;;;;;;15.66;59.94;99597.50;4145425;28;20648;-36
2022/04/30 02:26:29;;;;;;;18.03;14.40;;;;;;;15.77;59.04;99606.84;4145544;28;20245;-35
2022/04/30 02:28:31;;;;;;;26.10;14.43;;;;;;;15.75;59.39;99616.94;4144022;28;20237;-41
2022/04/30 02:30:37;;;;;;;22.03;15.63;;;;;;;15.89;58.59;99583.00;4143384;28;20237;-38
2022/04/30 02:32:50;;;;;;;20.33;14.57;;;;;;;15.99;58.74;99578.09;4140739;28;20288;-36
2022/04/30 02:34:52;;;;;;;24.07;16.17;;;;;;;16.51;57.21;99525.69;4142995;28;20244;-43
2022/04/30 02:36:54;;;;;;;21.13;15.97;;;;;;;15.62;59.67;99598.88;4140970;28;20698;-37
2022/04/30 02:38:57;;;;;;;23.17;15.50;;;;;;;15.90;59.06;99588.16;4143397;28;20673;-39
2022/04/30 02:40:58;;;;;;;23.43;16.07;;;;;;;16.18;58.16;99547.84;4142981;28;20295;-40
2022/04/30 02:43:07;;;;;;;19.20;15.70;;;;;;;16.06;59.12;99599.56;4142002;28;20225;-37
2022/04/30 02:45:11;;;;;;;22.10;15.33;;;;;;;15.35;61.14;99657.59;4146240;28;21293;-36
2022/04/30 02:47:13;;;;;;;19.60;15.50;;;;;;;14.96;62.14;99677.63;4139978;28;20655;-37
2022/04/30 02:49:16;;;;;;;21.77;16.13;;;;;;;14.86;63.21;99702.03;4146526;28;20260;-39
2022/04/30 02:51:18;;;;;;;19.27;15.13;;;;;;;15.13;61.93;99662.16;4145773;28;20233;-36
2022/04/30 02:53:20;;;;;;;18.90;15.00;;;;;;;14.68;62.95;99694.38;4142718;28;20237;-39
2022/04/30 02:55:23;;;;;;;22.50;15.60;;;;;;;14.13;65.08;99711.75;4145806;28;20295;-36
2022/04/30 02:57:24;;;;;;;19.73;14.43;;;;;;;13.98;66.17;99753.69;4141577;28;20237;-39
2022/04/30 03:01:47;;;;;;;21.00;16.57;;;;;;;15.16;61.29;99604.72;4139025;28;20291;-42
2022/04/30 03:03:49;;;;;;;21.83;15.20;;;;;;;14.63;63.20;99679.88;4142773;28;20324;-36
2022/04/30 03:05:53;;;;;;;22.33;16.27;;;;;;;15.08;61.76;99616.38;4142536;28;20260;-38
2022/04/30 03:07:55;;;;;;;22.27;16.67;;;;;;;14.86;62.59;99640.44;4143446;28;20221;-36
2022/04/30 03:09:56;;;;;;;21.20;16.03;;;;;;;14.36;63.81;99679.56;4142864;28;20649;-40
2022/04/30 03:11:58;;;;;;;22.27;16.00;;;;;;;14.00;65.24;99706.19;4146460;28;20722;-40
2022/04/30 03:14:00;;;;;;;19.30;15.00;;;;;;;13.80;65.50;99712.03;4145794;28;20963;-40
2022/04/30 03:23:07;;;;;;;21.80;15.13;;;;;;;13.24;67.51;99739.00;4142579;28;20668;-41
2022/04/30 03:25:09;;;;;;;21.37;15.10;;;;;;;13.74;66.01;99702.91;4143047;28;20237;-42
2022/04/30 03:27:12;;;;;;;23.57;17.43;;;;;;;13.76;65.28;99692.03;4140089;28;20241;-40
2022/04/30 03:29:15;;;;;;;22.23;16.27;;;;;;;13.59;66.02;99718.88;4144045;28;20228;-41
2022/04/30 03:31:19;;;;;;;20.93;16.33;;;;;;;14.09;64.26;99663.16;4142762;28;20241;-35
2022/04/30 03:33:20;;;;;;;24.00;16.90;;;;;;;13.25;66.03;99705.13;4142658;28;20239;-40
2022/04/30 03:35:23;;;;;;;24.33;16.97;;;;;;;12.53;68.59;99732.84;4144327;28;20642;-39
2022/04/30 03:37:25;;;;;;;23.73;16.80;;;;;;;14.04;65.20;99651.34;4145588;28;20236;-37
2022/04/30 03:39:26;;;;;;;24.13;17.40;;;;;;;15.12;61.46;99561.44;4144630;28;20233;-40
2022/04/30 03:41:28;;;;;;;24.13;17.13;;;;;;;14.74;62.55;99599.13;4143498;28;20730;-39
2022/04/30 03:43:31;;;;;;;24.73;17.57;;;;;;;14.43;62.72;99628.84;4144557;28;20236;-39
2022/04/30 03:45:34;;;;;;;24.70;17.97;;;;;;;14.45;63.63;99637.50;4144117;28;20728;-40
2022/04/30 03:47:37;;;;;;;31.67;18.67;;;;;;;13.50;65.07;99681.72;4145717;28;20237;-37
2022/04/30 03:49:39;;;;;;;22.73;19.10;;;;;;;13.76;65.86;99711.56;4147556;28;20237;-40
2022/04/30 03:51:40;;;;;;;22.27;17.97;;;;;;;14.16;63.87;99641.88;4147757;28;20303;-37
2022/04/30 03:53:43;;;;;;;26.60;18.83;;;;;;;14.62;62.98;99606.00;4148767;28;20645;-40
2022/04/30 03:55:44;;;;;;;23.00;17.57;;;;;;;13.91;65.12;99697.44;4145218;28;20722;-36
2022/04/30 03:57:46;;;;;;;26.40;18.47;;;;;;;13.68;65.65;99694.78;4143504;28;20722;-40
2022/04/30 03:59:49;;;;;;;21.97;17.53;;;;;;;12.74;69.24;99743.75;4149090;28;20913;-38
2022/04/30 04:01:51;;;;;;;22.90;18.50;;;;;;;11.61;71.89;99715.31;4145682;28;20331;-36
2022/04/30 04:03:53;;;;;;;25.37;18.30;;;;;;;12.86;69.92;99722.84;4144277;28;20236;-42
2022/04/30 04:05:55;;;;;;;26.67;19.27;;;;;;;13.91;64.93;99601.22;4146559;28;20320;-40
2022/04/30 04:07:58;;;;;;;27.33;19.73;;;;;;;14.08;64.82;99620.56;4146371;28;20245;-41
2022/04/30 04:09:59;;;;;;;26.03;19.83;;;;;;;14.79;62.47;99540.53;4145189;28;20760;-40
2022/04/30 04:12:01;;;;;;;26.63;20.20;;;;;;;13.08;67.06;99696.38;4145787;28;20280;-42
2022/04/30 04:18:44;;;;;;;24.63;19.30;;;;;;;14.06;65.41;99642.13;4147454;28;20664;-38
2022/04/30 04:20:47;;;;;;;28.33;20.83;;;;;;;13.99;64.84;99643.91;4144529;28;20260;-38
2022/04/30 04:22:49;;;;;;;30.17;20.67;;;;;;;14.69;62.83;99580.13;4151741;28;20229;-39
2022/04/30 04:27:11;;;;;;;24.63;20.13;;;;;;;14.30;64.44;99635.66;4139387;28;20715;-35
2022/04/30 04:29:19;;;;;;;27.87;20.97;;;;;;;14.86;62.41;99572.72;4146304;28;20231;-37
2022/04/30 04:31:22;;;;;;;26.33;20.50;;;;;;;14.11;64.69;99662.97;4144844;28;20237;-40
2022/04/30 04:33:24;;;;;;;30.43;22.03;;;;;;;14.12;65.44;99673.50;4145625;28;20348;-36
2022/04/30 04:35:27;;;;;;;30.27;20.80;;;;;;;14.38;64.25;99645.44;4144771;28;20579;-40
2022/04/30 04:37:29;;;;;;;30.13;20.90;;;;;;;13.10;67.41;99710.41;4143281;28;20283;-37
2022/04/30 04:39:31;;;;;;;29.50;21.03;;;;;;;13.51;67.40;99740.31;4144682;28;20648;-36
2022/04/30 04:41:33;;;;;;;32.27;21.33;;;;;;;13.61;67.04;99723.22;4144811;28;20796;-35
2022/04/30 04:43:34;;;;;;;26.93;20.53;;;;;;;13.87;65.02;99674.75;4144562;28;20245;-35
2022/04/30 04:45:36;;;;;;;30.33;20.40;;;;;;;12.73;69.86;99783.94;4143804;28;20269;-39
2022/04/30 04:47:41;;;;;;;27.73;19.87;;;;;;;13.98;65.80;99658.25;4148954;28;20838;-35
2022/04/30 04:49:43;;;;;;;25.80;20.40;;;;;;;14.52;63.74;99617.00;4149297;28;20290;-36
2022/04/30 04:51:44;;;;;;;28.80;21.20;;;;;;;13.93;66.14;99701.56;4145410;28;20229;-36
2022/04/30 04:53:46;;;;;;;25.10;20.27;;;;;;;13.81;66.67;99712.88;4143342;28;20299;-36
2022/04/30 04:55:49;;;;;;;29.17;21.50;;;;;;;13.50;67.19;99727.13;4144248;28;20292;-36
2022/04/30 04:57:51;;;;;;;28.37;20.33;;;;;;;12.64;70.48;99781.31;4141175;28;20235;-38
2022/04/30 04:59:54;;;;;;;24.43;19.93;;;;;;;13.09;69.85;99768.28;4143765;28;20236;-38
2022/04/30 05:01:55;;;;;;;25.90;19.07;;;;;;;13.47;67.99;99722.19;4144510;28;20287;-40
2022/04/30 05:03:57;;;;;;;27.73;21.00;;;;;;;14.09;65.53;99647.13;4147279;28;20324;-36
2022/04/30 05:05:59;;;;;;;28.87;20.00;;;;;;;14.19;66.18;99660.22;4144773;28;20251;-37
2022/04/30 05:08:02;;;;;;;26.60;20.90;;;;;;;15.02;62.91;99607.25;4151834;28;20233;-36
2022/04/30 05:10:04;;;;;;;25.73;19.83;;;;;;;13.88;66.79;99706.63;4144354;28;20814;-35
2022/04/30 05:12:07;;;;;;;26.50;20.40;;;;;;;14.80;63.36;99627.00;4144835;28;20245;-40
2022/04/30 05:14:09;;;;;;;28.70;20.87;;;;;;;13.69;66.79;99728.50;4146699;28;20237;-38
2022/04/30 05:16:11;;;;;;;25.73;21.03;;;;;;;14.27;65.81;99668.13;4140463;28;20233;-42
2022/04/30 05:18:13;;;;;;;31.43;21.10;;;;;;;14.60;64.74;99648.19;4146808;28;20229;-34
2022/04/30 05:20:15;;;;;;;28.70;21.13;;;;;;;14.84;63.50;99629.13;4148671;28;20612;-35
2022/04/30 05:22:37;;;;;;;27.60;21.03;;;;;;;14.50;64.35;99643.13;4143526;28;20295;-40
2022/04/30 05:24:38;;;;;;;25.27;19.80;;;;;;;14.84;63.17;99636.31;4143062;28;20283;-40
2022/04/30 05:26:41;;;;;;;27.83;20.20;;;;;;;13.29;67.54;99767.84;4134211;28;20590;-40
2022/04/30 05:28:43;;;;;;;26.47;21.07;;;;;;;14.04;65.02;99686.09;4139761;28;20323;-40
2022/04/30 05:30:44;;;;;;;28.07;20.60;;;;;;;14.65;63.94;99651.13;4138146;28;20233;-37
2022/04/30 05:32:46;;;;;;;25.93;20.40;;;;;;;14.09;65.14;99684.56;4138969;28;20237;-42
2022/04/30 05:34:48;;;;;;;27.63;22.00;;;;;;;13.99;66.07;99707.19;4137541;28;20743;-36
2022/04/30 05:36:50;;;;;;;30.47;20.90;;;;;;;14.25;64.91;99667.47;4137656;28;20237;-40
2022/04/30 05:38:51;;;;;;;25.80;20.40;;;;;;;14.29;64.80;99686.66;4140739;28;20233;-34
2022/04/30 05:40:53;;;;;;;30.30;22.07;;;;;;;14.46;63.44;99644.50;4136235;28;20605;-40
2022/04/30 05:42:55;;;;;;;30.97;22.63;;;;;;;14.58;63.41;99660.91;4138215;28;20299;-39
2022/04/30 05:44:56;;;;;;;26.37;21.93;;;;;;;13.67;67.28;99767.91;4140329;28;20241;-35
2022/04/30 05:46:58;;;;;;;27.37;22.07;;;;;;;13.85;66.00;99733.72;4135891;28;20241;-38
2022/04/30 05:49:00;;;;;;;26.63;20.97;;;;;;;14.61;63.45;99655.16;4139159;28;20237;-37
2022/04/30 05:51:02;;;;;;;27.47;22.27;;;;;;;14.56;63.53;99663.75;4137808;28;20229;-38
2022/04/30 05:53:05;;;;;;;28.87;22.57;;;;;;;13.88;65.67;99741.38;4138150;28;20249;-39
2022/04/30 05:55:07;;;;;;;29.67;22.27;;;;;;;14.11;65.19;99717.28;4140962;28;20233;-37
2022/04/30 05:57:08;;;;;;;25.60;21.80;;;;;;;14.62;63.75;99678.25;4142731;28;20284;-37
2022/04/30 05:59:10;;;;;;;28.53;21.57;;;;;;;13.88;66.63;99746.72;4141055;28;20280;-44
2022/04/30 06:01:12;;;;;;;28.83;22.40;;;;;;;14.54;64.30;99691.72;4140984;28;20229;-38
2022/04/30 06:03:14;;;;;;;28.90;22.60;;;;;;;14.52;63.91;99681.22;4143684;28;20734;-37
2022/04/30 06:05:16;;;;;;;31.13;23.33;;;;;;;14.38;64.10;99692.75;4140386;28;20316;-39
2022/04/30 06:07:18;;;;;;;28.83;22.30;;;;;;;14.64;63.39;99655.63;4140507;28;20233;-38
2022/04/30 06:09:20;;;;;;;29.87;23.10;;;;;;;14.04;65.18;99729.72;4139683;28;20249;-40
2022/04/30 06:11:22;;;;;;;30.37;22.03;;;;;;;14.25;65.17;99718.28;4143657;28;20229;-36
2022/04/30 06:13:23;;;;;;;29.33;23.37;;;;;;;14.18;64.15;99712.03;4144293;28;20228;-38
2022/04/30 06:15:25;;;;;;;29.90;22.60;;;;;;;14.65;62.92;99669.84;4141182;28;20242;-42
2022/04/30 06:17:27;;;;;;;34.10;24.77;;;;;;;14.54;63.41;99697.91;4137775;28;20233;-37
2022/04/30 06:19:33;;;;;;;28.33;23.93;;;;;;;13.94;65.28;99750.53;4137288;28;20549;-39
2022/04/30 06:21:35;;;;;;;31.83;25.57;;;;;;;14.36;63.60;99702.81;4149831;28;20228;-39
2022/04/30 06:23:36;;;;;;;29.23;25.03;;;;;;;14.52;63.59;99702.63;4141537;28;20237;-39
2022/04/30 06:25:38;;;;;;;36.57;26.20;;;;;;;13.85;65.46;99767.66;4142110;28;20308;-37
2022/04/30 06:27:40;;;;;;;34.30;25.10;;;;;;;13.82;65.18;99758.13;4146319;28;20619;-36
2022/04/30 06:29:42;;;;;;;28.30;23.90;;;;;;;14.63;63.60;99699.47;4143838;28;20235;-35
2022/04/30 06:31:44;;;;;;;33.10;25.20;;;;;;;14.49;63.84;99697.63;4142375;28;20287;-35
2022/04/30 06:33:47;;;;;;;31.40;24.57;;;;;;;14.47;63.78;99697.00;4140070;28;20234;-37
2022/04/30 06:35:49;;;;;;;35.27;25.07;;;;;;;14.57;63.47;99683.34;4142528;28;20891;-40
2022/04/30 06:37:50;;;;;;;30.93;23.83;;;;;;;13.85;65.78;99764.97;4140996;28;20233;-36
2022/04/30 06:39:52;;;;;;;35.60;25.13;;;;;;;14.13;64.69;99730.47;4143772;28;20690;-43
2022/04/30 06:41:54;;;;;;;32.43;26.57;;;;;;;14.20;64.23;99718.03;4142352;28;20263;-39
2022/04/30 06:43:56;;;;;;;31.43;25.33;;;;;;;13.89;65.77;99776.97;4145010;28;20233;-40
2022/04/30 06:45:57;;;;;;;32.07;25.37;;;;;;;14.51;63.83;99711.63;4140227;28;20291;-40
2022/04/30 06:47:59;;;;;;;32.20;26.13;;;;;;;14.14;63.83;99729.44;4143038;28;20289;-35
2022/04/30 06:50:01;;;;;;;31.13;25.43;;;;;;;13.84;65.13;99766.81;4143289;28;20233;-34
2022/04/30 06:52:03;;;;;;;33.67;25.70;;;;;;;14.07;64.72;99755.25;4140081;28;20229;-37
2022/04/30 06:58:50;;;;;;;31.70;25.77;;;;;;;14.04;65.28;99750.25;4135349;28;20632;-37
2022/04/30 07:02:57;;;;;;;39.27;28.33;;;;;;;14.15;64.69;99742.63;4142210;28;20836;-36
2022/04/30 07:04:59;;;;;;;33.53;25.77;;;;;;;13.99;65.01;99752.66;4142237;28;20236;-35
2022/04/30 07:07:01;;;;;;;29.87;24.53;;;;;;;14.04;64.87;99764.47;4138643;28;20291;-37
2022/04/30 07:09:05;;;;;;;28.90;23.67;;;;;;;14.40;64.27;99730.84;4134110;28;20303;-39
2022/04/30 07:11:07;;;;;;;30.93;25.20;;;;;;;13.46;66.14;99797.97;4141200;28;20706;-37
2022/04/30 07:13:09;;;;;;;28.10;23.43;;;;;;;14.02;64.92;99744.28;4145147;28;20259;-38
2022/04/30 07:15:11;;;;;;;28.90;23.83;;;;;;;14.17;64.55;99755.81;4131754;28;20234;-40
2022/04/30 07:17:14;;;;;;;31.43;23.93;;;;;;;13.88;65.03;99761.94;4134702;28;20300;-37
2022/04/30 07:19:16;;;;;;;27.83;23.83;;;;;;;13.37;66.39;99815.88;4133992;28;20234;-38
2022/04/30 07:21:18;;;;;;;30.33;23.83;;;;;;;13.84;65.32;99761.47;4143159;28;20284;-37
2022/04/30 07:23:20;;;;;;;30.30;22.70;;;;;;;13.28;66.59;99812.44;4144623;28;20613;-38
2022/04/30 07:25:22;;;;;;;30.00;23.13;;;;;;;13.63;66.45;99774.63;4148642;28;20639;-35
2022/04/30 07:27:24;;;;;;;30.10;23.50;;;;;;;13.08;67.56;99840.53;4144600;28;20935;-39
2022/04/30 07:29:26;;;;;;;25.33;21.87;;;;;;;13.42;66.38;99810.84;4145527;28;20671;-40
2022/04/30 07:31:27;;;;;;;28.07;23.33;;;;;;;13.65;66.11;99789.50;4137861;28;20232;-42
2022/04/30 07:33:30;;;;;;;26.90;23.03;;;;;;;13.09;67.12;99827.00;4158645;28;20717;-40
2022/04/30 07:35:35;;;;;;;25.70;21.23;;;;;;;13.22;67.05;99816.63;4148198;28;20248;-33
2022/04/30 07:37:37;;;;;;;24.00;19.23;;;;;;;13.52;66.43;99776.72;4144792;28;20244;-39
2022/04/30 07:39:39;;;;;;;24.00;19.73;;;;;;;13.35;66.29;99793.88;4145158;28;20287;-41
2022/04/30 07:41:40;;;;;;;25.73;20.67;;;;;;;13.80;65.10;99762.81;4145043;28;20302;-39
2022/04/30 07:43:42;;;;;;;23.97;19.73;;;;;;;13.72;66.06;99778.91;4146412;28;20315;-35
2022/04/30 07:45:44;;;;;;;26.27;20.30;;;;;;;13.23;67.26;99825.47;4147928;28;20274;-36
2022/04/30 07:47:47;;;;;;;26.20;20.53;;;;;;;13.14;66.54;99808.63;4145272;28;20236;-38
2022/04/30 07:49:49;;;;;;;22.97;20.00;;;;;;;13.16;66.94;99805.78;4147940;28;20236;-34
2022/04/30 07:51:55;;;;;;;21.00;18.63;;;;;;;13.14;68.20;99810.50;4135479;28;20238;-35
2022/04/30 07:53:57;;;;;;;23.00;19.40;;;;;;;13.64;66.75;99787.00;4138623;28;20241;-39
2022/04/30 07:55:59;;;;;;;21.97;18.33;;;;;;;13.44;67.05;99794.66;4141869;28;21206;-36
2022/04/30 07:58:02;;;;;;;24.63;18.93;;;;;;;12.88;68.05;99842.81;4146131;28;20732;-34
2022/04/30 08:00:05;;;;;;;23.23;19.03;;;;;;;13.50;66.09;99778.75;4144849;28;20225;-35
2022/04/30 08:02:06;;;;;;;24.47;19.90;;;;;;;13.15;67.10;99829.00;4145100;28;20241;-39
2022/04/30 08:04:08;;;;;;;23.80;19.13;;;;;;;13.48;66.19;99791.41;4142700;28;20315;-43
2022/04/30 08:06:11;;;;;;;22.90;18.73;;;;;;;13.80;64.96;99751.28;4143552;28;20233;-41
2022/04/30 08:08:12;;;;;;;21.27;18.97;;;;;;;14.03;64.88;99765.47;4141164;28;20660;-36
2022/04/30 08:10:14;;;;;;;21.37;18.70;;;;;;;14.33;63.95;99736.94;4144175;28;20765;-39
2022/04/30 08:12:20;;;;;;;21.87;18.63;;;;;;;13.17;66.17;99821.66;4143534;28;20248;-33
2022/04/30 08:14:21;;;;;;;23.83;19.07;;;;;;;13.82;65.13;99759.94;4144137;28;20298;-43
2022/04/30 08:16:23;;;;;;;21.37;18.23;;;;;;;13.52;66.10;99790.06;4142070;28;20249;-39
2022/04/30 08:18:26;;;;;;;22.67;18.90;;;;;;;13.73;65.35;99769.88;4142015;28;20324;-42
2022/04/30 08:20:28;;;;;;;22.93;19.73;;;;;;;13.51;67.06;99806.28;4143023;28;20295;-40
2022/04/30 08:22:30;;;;;;;23.97;19.33;;;;;;;13.97;65.16;99760.84;4139961;28;20234;-40
2022/04/30 08:24:32;;;;;;;23.30;20.10;;;;;;;13.77;65.79;99781.88;4138887;28;20241;-38
2022/04/30 08:26:34;;;;;;;23.70;20.93;;;;;;;14.17;64.18;99744.28;4147951;28;20658;-41
2022/04/30 08:28:35;;;;;;;24.07;20.67;;;;;;;14.33;64.70;99752.16;4139186;28;20295;-36
2022/04/30 08:30:37;;;;;;;23.87;21.00;;;;;;;14.04;65.27;99744.91;4145638;28;20288;-39
2022/04/30 08:32:40;;;;;;;23.17;19.53;;;;;;;13.66;66.35;99791.13;4143100;28;20237;-39
2022/04/30 08:34:42;;;;;;;24.27;20.77;;;;;;;14.44;64.44;99743.66;4141809;28;20283;-38
2022/04/30 08:36:45;;;;;;;23.53;18.57;;;;;;;13.75;65.20;99766.03;4140590;28;20731;-42
2022/04/30 08:38:46;;;;;;;25.30;20.13;;;;;;;13.70;66.38;99781.78;4138260;28;20242;-35
2022/04/30 08:40:48;;;;;;;24.53;19.37;;;;;;;13.87;65.63;99771.81;4136323;28;20237;-38
2022/04/30 08:42:50;;;;;;;21.37;19.07;;;;;;;14.31;64.32;99747.00;4142142;28;20244;-36
2022/04/30 08:44:52;;;;;;;20.77;18.57;;;;;;;13.89;65.51;99753.75;4147869;28;20847;-39
2022/04/30 08:46:54;;;;;;;21.23;18.40;;;;;;;13.69;65.53;99781.94;4144786;28;20233;-38
2022/04/30 08:48:55;;;;;;;21.80;18.17;;;;;;;13.30;66.79;99820.25;4139112;28;20741;-38
2022/04/30 08:50:58;;;;;;;21.43;18.90;;;;;;;13.40;66.75;99802.19;4138837;28;20237;-37
2022/04/30 08:53:00;;;;;;;22.10;18.27;;;;;;;13.51;66.30;99793.75;4142754;28;20233;-38
2022/04/30 08:55:03;;;;;;;23.80;19.77;;;;;;;13.46;66.72;99790.78;4143168;28;20232;-37
2022/04/30 08:57:05;;;;;;;23.97;19.80;;;;;;;13.73;66.64;99768.03;4143798;28;20233;-34
2022/04/30 08:59:07;;;;;;;24.60;19.53;;;;;;;13.99;65.87;99752.66;4148936;28;20229;-35
2022/04/30 09:01:14;;;;;;;22.87;19.50;;;;;;;13.15;68.55;99818.31;4139124;28;20857;-39
2022/04/30 09:03:17;;;;;;;23.87;20.10;;;;;;;14.40;64.99;99728.19;4140257;28;20225;-36
2022/04/30 09:05:20;;;;;;;23.17;18.53;;;;;;;13.44;68.74;99806.16;4131979;28;20272;-38
2022/04/30 09:07:25;;;;;;;23.37;18.97;;;;;;;13.56;68.13;99779.84;4133763;28;20233;-33
2022/04/30 09:09:29;;;;;;;23.70;19.03;;;;;;;13.82;67.95;99774.16;4132446;28;20674;-41
2022/04/30 09:11:33;;;;;;;21.30;17.60;;;;;;;13.69;68.44;99785.44;4137634;28;20233;-35
2022/04/30 09:13:43;;;;;;;23.57;18.73;;;;;;;13.45;69.61;99797.13;4135290;28;20237;-38
2022/04/30 09:15:46;;;;;;;22.03;18.70;;;;;;;13.95;66.82;99725.44;4137126;28;20237;-37
2022/04/30 09:17:58;;;;;;;22.30;18.30;;;;;;;13.86;67.87;99761.31;4140624;28;21003;-35
2022/04/30 09:20:01;;;;;;;25.13;17.50;;;;;;;14.04;67.47;99743.09;4132195;28;20769;-40
2022/04/30 09:22:03;;;;;;;21.17;17.10;;;;;;;13.07;70.43;99807.69;4143965;28;20275;-35
2022/04/30 09:24:06;;;;;;;21.80;17.37;;;;;;;13.92;68.05;99737.34;4139597;28;20339;-40
2022/04/30 09:26:08;;;;;;;20.70;18.50;;;;;;;14.83;64.80;99638.19;4142413;28;20374;-41
2022/04/30 09:28:10;;;;;;;21.03;18.57;;;;;;;14.21;65.49;99694.78;4141525;28;20234;-36
2022/04/30 09:30:32;;;;;;;25.57;18.17;;;;;;;14.40;66.37;99696.09;4142524;28;20295;-33
2022/04/30 09:32:35;;;;;;;23.20;18.83;;;;;;;13.90;66.43;99739.34;4143304;28;20233;-34
2022/04/30 09:39:22;;;;;;;20.87;18.50;;;;;;;13.57;67.54;99795.72;4142624;28;20709;-34
2022/04/30 09:41:26;;;;;;;24.10;19.37;;;;;;;14.01;66.19;99747.97;4144726;28;20993;-39
2022/04/30 09:43:33;;;;;;;23.50;18.07;;;;;;;14.11;65.95;99727.16;4140163;28;20348;-37
2022/04/30 09:45:38;;;;;;;24.27;18.30;;;;;;;13.74;67.09;99747.50;4142340;28;20244;-38
2022/04/30 09:47:41;;;;;;;23.47;19.20;;;;;;;14.06;66.84;99738.38;4142698;28;20374;-42
2022/04/30 09:54:26;;;;;;;21.13;17.80;;;;;;;14.37;65.04;99705.28;4141814;28;20311;-37
2022/04/30 09:56:39;;;;;;;23.77;18.80;;;;;;;14.08;66.00;99738.22;4139529;28;20248;-38
2022/04/30 09:58:43;;;;;;;22.87;19.13;;;;;;;13.80;67.00;99772.66;4140195;28;20229;-39
2022/04/30 10:00:46;;;;;;;22.83;18.90;;;;;;;13.85;66.23;99743.59;4145634;28;20228;-33
2022/04/30 10:02:57;;;;;;;21.67;18.63;;;;;;;14.05;66.02;99741.25;4137258;28;20234;-34
2022/04/30 10:05:01;;;;;;;25.00;19.20;;;;;;;13.65;67.96;99769.94;4145634;28;20232;-37